Airfield :
LOGIN :

Register | Disclaimer

   EN    FR    IT 

 










Legend :    VFR   Marginal VFR   IFR   Intensive IFR   Very Intensive IFR
Visi :
Ceiling :
>= 8 km
>= 3000ft
5 to 8 km
1000 to 3000 ft
1500m to 5 km
500 to 1000 ft
800 to 1500m
200 to 500 ft
< 800m
< 200 ft
Symbols :   Thunderstorms  Fog  Heavy snow  Heavy precipitations  Wind > 20 kt
SIGMETs :     Misc.  Thunderstorms  Icing  Turbulence  Mountain Waves  Volcanic Ashes






- Airport Elevation : 160 ft
- IATA code : FMO


EDDG - Münster Osnabrück Int.

CURRENT METAR :
  • 061550Z 21015KT 170V240 9999 BKN009 07/05 Q1005 TEMPO 4000 RADZ BKN011

EXPIRED METARs :
  • 061520Z 21013KT 180V240 6000 -RADZ BKN010 07/05 Q1005 TEMPO 4000 RADZ BKN008
  • 061450Z 20013KT 160V240 9999 -RA BKN010 06/05 Q1005 TEMPO BKN009
  • 061420Z 20012KT 160V230 9999 -RA BKN010 06/04 Q1006 TEMPO BKN009
  • 061350Z 20012KT 9999 -RADZ BKN011 06/04 Q1006 TEMPO BKN009
  • 061320Z 21014G24KT 9999 BKN009 06/04 Q1006 NOSIG

TAF TAF EDDG
Valid from the 06 at 12:00 until the 07 at 12:00 UTC


061100Z 0612/0712 21015G25KT 8000 BKN010
TEMPO 0612/0618 4000 RA BKN008
TEMPO 0619/0703 23020G30KT 4000 SHRA BKN004 BKN030TCU
TEMPO 0703/0712 25013KT 4000 -RA BR BKN008



MET'MAP, your aeronautical weather chart ! - Copyright ORBIFLY December 2007 - Disclaimer

ORBIFLY MET'MAP TEAM :

Programming & Development : Alexandra Zaïnal
Concept & original design : Baudouin d'Aumeries
Assistance for programming : Marc-Olivier Méhu
Technical & hardware support : Manuel Goepfert

Contact : metmap@orbifly.com




SOURCES & CREDITS :

   NOAA